Terminal Aerodrome Forecast
Issued by NWS Quad Cities IA IL

Home | Current Version | Previous Version | Text Only | Print | Product List | Glossary On
Versions: 1 2 3 4 5 6 7 8 9 10 11 12 13 14 15 16 17
000
FTUS43 KDVN 162300
TAFMLI
TAF
KMLI 162320Z 1700/1724 16015G25KT P6SM BKN100
     FM170600 17012KT P6SM SCT050 BKN100
     FM171500 27009KT P6SM SCT040 BKN120=

USA.gov is the U.S. government's official web portal to all federal, state and local government web resources and services.